createdAt,value
2022-12-28T00:01:51.684Z,3.1
2022-12-28T00:06:49.876Z,3.2
2022-12-28T00:11:48.329Z,3.2
2022-12-28T00:16:46.713Z,3.3
2022-12-28T00:21:45.030Z,3.3
2022-12-28T00:26:43.444Z,2.4
2022-12-28T00:31:42.039Z,3.4
2022-12-28T00:37:07.688Z,3.5
2022-12-28T00:41:39.280Z,3.6
2022-12-28T00:46:37.565Z,3.7
2022-12-28T00:51:36.003Z,3.8
2022-12-28T00:56:34.364Z,3.8
2022-12-28T01:01:32.813Z,3.8
2022-12-28T01:06:31.142Z,3.9
2022-12-28T01:11:29.550Z,3.9
2022-12-28T01:16:27.838Z,3.8
2022-12-28T01:21:25.996Z,3.8
2022-12-28T01:26:24.359Z,3.7
2022-12-28T01:31:22.642Z,3.7
2022-12-28T01:36:20.760Z,3.8
2022-12-28T01:41:19.004Z,3.8
2022-12-28T01:46:17.425Z,4
2022-12-28T01:51:15.870Z,4
2022-12-28T01:56:14.078Z,4
2022-12-28T02:01:12.431Z,4
2022-12-28T02:06:11.338Z,4
2022-12-28T02:11:09.751Z,4.1
2022-12-28T02:16:08.155Z,4
2022-12-28T02:21:06.675Z,4.1
2022-12-28T02:26:04.943Z,3.8
2022-12-28T02:31:02.848Z,3.2
2022-12-28T02:36:00.553Z,2.9
2022-12-28T02:40:58.606Z,2.6
2022-12-28T02:45:56.684Z,2.3
2022-12-28T02:50:54.656Z,2.1
2022-12-28T02:55:52.969Z,2
2022-12-28T03:00:51.239Z,1.9
2022-12-28T03:05:49.435Z,1.9
2022-12-28T03:10:47.602Z,1.9
2022-12-28T03:15:45.888Z,1.9
2022-12-28T03:20:44.255Z,2.1
2022-12-28T03:25:42.328Z,2.1
2022-12-28T03:30:40.586Z,2.1
2022-12-28T03:35:38.482Z,1.8
2022-12-28T03:40:36.531Z,1.6
2022-12-28T03:45:44.537Z,1.4
2022-12-28T03:50:32.091Z,1.3
2022-12-28T03:55:30.252Z,1.2
2022-12-28T04:00:28.351Z,1.1
2022-12-28T04:05:26.696Z,1.2
2022-12-28T04:10:25.036Z,1.5
2022-12-28T04:15:23.531Z,1.7
2022-12-28T04:20:22.051Z,2
2022-12-28T04:25:20.529Z,2.3
2022-12-28T04:30:19.075Z,2.4
2022-12-28T04:35:17.455Z,2.6
2022-12-28T04:40:15.745Z,2.6
2022-12-28T04:45:18.344Z,2.6
2022-12-28T04:50:12.391Z,2.6
2022-12-28T04:55:31.845Z,2.5
2022-12-28T05:00:09.080Z,2.5
2022-12-28T05:05:07.417Z,2.5
2022-12-28T05:10:05.643Z,2.6
2022-12-28T05:15:03.813Z,2.7
2022-12-28T05:20:02.241Z,2.7
2022-12-28T05:25:00.368Z,2.7
2022-12-28T05:29:58.384Z,2.6
2022-12-28T05:34:56.902Z,2.4
2022-12-28T05:39:55.205Z,2.4
2022-12-28T05:44:53.890Z,2.3
2022-12-28T05:49:52.288Z,2.3
2022-12-28T05:54:50.679Z,2.2
2022-12-28T05:59:49.059Z,2.1
2022-12-28T06:04:47.215Z,2.1
2022-12-28T06:09:45.424Z,2.2
2022-12-28T06:14:43.693Z,2.3
2022-12-28T06:19:42.145Z,2.5
2022-12-28T06:24:40.444Z,2.7
2022-12-28T06:29:39.093Z,3.1
2022-12-28T06:34:37.506Z,3.4
2022-12-28T06:39:36.245Z,3.7
2022-12-28T06:44:39.259Z,4.1
2022-12-28T06:49:33.673Z,4.3
2022-12-28T06:54:32.327Z,4.6
2022-12-28T06:59:30.941Z,4.5
2022-12-28T07:04:29.623Z,5
2022-12-28T07:09:28.333Z,5.6
2022-12-28T07:14:29.489Z,8.3
2022-12-28T07:19:27.488Z,7.9
2022-12-28T07:24:25.400Z,7.7
2022-12-28T07:29:23.717Z,7.9
2022-12-28T07:34:22.572Z,8
2022-12-28T07:39:20.853Z,8.1
2022-12-28T07:44:19.281Z,8.4
2022-12-28T07:49:18.072Z,8.8
2022-12-28T07:54:16.487Z,8.8
2022-12-28T07:59:14.576Z,8.5
2022-12-28T08:04:12.539Z,8.3
2022-12-28T08:09:11.299Z,9.1
2022-12-28T08:14:10.706Z,10.2
2022-12-28T08:19:09.683Z,10.8
2022-12-28T08:24:08.490Z,10.9
2022-12-28T08:29:06.522Z,10.2
2022-12-28T08:34:04.612Z,9.6
2022-12-28T08:39:02.990Z,9.8
2022-12-28T08:44:02.765Z,11.4
2022-12-28T08:49:02.692Z,13.2
2022-12-28T08:54:05.720Z,17.1
2022-12-28T08:59:03.939Z,15.8
2022-12-28T09:04:01.620Z,15.3
2022-12-28T09:09:06.452Z,16
2022-12-28T09:13:58.559Z,14.3
2022-12-28T09:18:55.891Z,13.9
2022-12-28T09:23:54.563Z,14.2
2022-12-28T09:28:52.959Z,13.9
2022-12-28T09:34:32.013Z,13.7
2022-12-28T09:38:49.349Z,13.6
2022-12-28T09:43:47.820Z,13.4
2022-12-28T09:48:46.085Z,13.6
2022-12-28T09:53:44.856Z,13.9
2022-12-28T09:58:47.711Z,13.5
2022-12-28T10:03:41.091Z,12.8
2022-12-28T10:08:39.107Z,13
2022-12-28T10:13:53.956Z,13.2
2022-12-28T10:18:39.470Z,14.2
2022-12-28T10:23:41.192Z,15.1
2022-12-28T10:28:35.453Z,16
2022-12-28T10:33:33.719Z,15.4
2022-12-28T10:38:31.971Z,15.7
2022-12-28T10:43:30.538Z,16.1
2022-12-28T10:48:28.895Z,16.1
2022-12-28T10:53:27.207Z,16.1
2022-12-28T10:58:30.566Z,16.3
2022-12-28T11:03:24.089Z,15.9
2022-12-28T11:08:21.777Z,15.6
2022-12-28T11:13:21.907Z,15.7
2022-12-28T11:18:18.042Z,15.8
2022-12-28T11:23:16.503Z,15.5
2022-12-28T11:28:14.393Z,14.7
2022-12-28T11:33:11.369Z,13.9
2022-12-28T11:38:09.110Z,13.3
2022-12-28T11:43:06.758Z,12.6
2022-12-28T11:48:04.545Z,12.1
2022-12-28T11:53:02.364Z,11.5
2022-12-28T11:58:00.203Z,11.2
2022-12-28T12:02:58.610Z,11.1
2022-12-28T12:07:56.585Z,10.9
2022-12-28T12:12:54.884Z,11.1
2022-12-28T12:17:53.636Z,11.8
2022-12-28T12:22:52.385Z,11.8
2022-12-28T12:27:50.475Z,11.4
2022-12-28T12:32:48.319Z,10.8
2022-12-28T12:37:46.089Z,10.4
2022-12-28T12:42:44.160Z,10
2022-12-28T12:47:42.397Z,9.9
2022-12-28T12:52:42.299Z,9.3
2022-12-28T12:57:38.831Z,9.1
2022-12-28T13:02:37.338Z,8.5
2022-12-28T13:07:35.378Z,8.4
2022-12-28T13:12:33.730Z,8.5
2022-12-28T13:17:32.433Z,8.6
2022-12-28T13:22:30.936Z,8.6
2022-12-28T13:27:29.305Z,8.6
2022-12-28T13:32:30.378Z,8.4
2022-12-28T13:37:25.563Z,8.2
2022-12-28T13:42:23.699Z,8
2022-12-28T13:47:21.985Z,7.8
2022-12-28T13:52:20.275Z,7.9
2022-12-28T13:57:45.645Z,7.8
2022-12-28T14:02:17.128Z,8.1
2022-12-28T14:07:15.556Z,8.2
2022-12-28T14:12:13.801Z,8.2
2022-12-28T14:17:12.153Z,8.2
2022-12-28T14:22:13.777Z,8.1
2022-12-28T14:27:08.432Z,7.8
2022-12-28T14:32:06.481Z,7.4
2022-12-28T14:37:04.479Z,7.1
2022-12-28T14:42:02.375Z,6.8
2022-12-28T14:47:00.387Z,6.3
2022-12-28T14:51:58.239Z,5.8
2022-12-28T14:56:56.220Z,5
2022-12-28T15:01:54.120Z,4.4
2022-12-28T15:06:52.267Z,4.3
2022-12-28T15:11:50.617Z,4.3
2022-12-28T15:16:48.954Z,4.4
2022-12-28T15:21:47.418Z,4.6
2022-12-28T15:26:45.995Z,4.6
2022-12-28T15:31:44.257Z,4.6
2022-12-28T15:36:42.502Z,4.3
2022-12-28T15:41:40.915Z,4
2022-12-28T15:46:39.318Z,4
2022-12-28T15:51:37.465Z,3.9
2022-12-28T15:56:35.738Z,3.6
2022-12-28T16:01:34.162Z,3.4
2022-12-28T16:06:32.226Z,3.3
2022-12-28T16:11:31.054Z,3.3
2022-12-28T16:16:29.426Z,3.3
2022-12-28T16:21:27.882Z,3.5
2022-12-28T16:26:26.763Z,3.7
2022-12-28T16:31:25.376Z,3.9
2022-12-28T16:36:23.798Z,4
2022-12-28T16:41:22.330Z,4.1
2022-12-28T16:46:20.490Z,4.2
2022-12-28T16:51:18.862Z,4.2
2022-12-28T16:56:17.439Z,4.2
2022-12-28T17:01:16.116Z,4.2
2022-12-28T17:06:14.345Z,4.2
2022-12-28T17:11:13.137Z,4.2
2022-12-28T17:16:11.480Z,4.2
2022-12-28T17:21:09.880Z,4.2
2022-12-28T17:26:08.221Z,4.1
2022-12-28T17:31:06.761Z,3.9
2022-12-28T17:36:05.088Z,3.7
2022-12-28T17:41:02.499Z,3.2
2022-12-28T17:46:00.766Z,2.8
2022-12-28T17:50:58.749Z,2.6
2022-12-28T17:55:56.937Z,2.5
2022-12-28T18:00:55.634Z,2.6
2022-12-28T18:05:54.268Z,2.8
2022-12-28T18:10:53.031Z,3
2022-12-28T18:15:51.459Z,3.1
2022-12-28T18:20:49.746Z,3.2
2022-12-28T18:25:47.219Z,3.2
2022-12-28T18:30:45.699Z,3.3
2022-12-28T18:35:44.047Z,3.4
2022-12-28T18:40:42.647Z,3.4
2022-12-28T18:45:41.116Z,3.5
2022-12-28T18:50:39.612Z,3.4
2022-12-28T18:55:41.265Z,3.4
2022-12-28T19:00:36.704Z,3.5
2022-12-28T19:05:35.193Z,3.5
2022-12-28T19:10:33.691Z,3.5
2022-12-28T19:15:32.241Z,3.4
2022-12-28T19:20:30.442Z,3.4
2022-12-28T19:25:28.759Z,3.4
2022-12-28T19:30:27.159Z,3.3
2022-12-28T19:35:25.817Z,3.3
2022-12-28T19:40:24.291Z,3.3
2022-12-28T19:45:22.826Z,3.3
2022-12-28T19:50:21.422Z,3.2
2022-12-28T19:55:20.014Z,3.2
2022-12-28T20:00:18.550Z,3.2
2022-12-28T20:05:16.720Z,3.2
2022-12-28T20:10:15.119Z,3.2
2022-12-28T20:15:13.687Z,3
2022-12-28T20:20:14.733Z,3
2022-12-28T20:25:10.364Z,3
2022-12-28T20:30:09.026Z,2.9
2022-12-28T20:35:07.818Z,3
2022-12-28T20:40:06.612Z,3
2022-12-28T20:45:05.209Z,3.1
2022-12-28T20:50:03.769Z,3.2
2022-12-28T20:55:02.131Z,3.2
2022-12-28T21:00:00.682Z,3.3
2022-12-28T21:04:59.335Z,3.4
2022-12-28T21:09:58.106Z,3.4
2022-12-28T21:14:56.969Z,3.4
2022-12-28T21:19:55.557Z,3.4
2022-12-28T21:24:53.983Z,3.2
2022-12-28T21:29:52.491Z,3
2022-12-28T21:34:50.893Z,2.9
2022-12-28T21:39:50.066Z,2.8
2022-12-28T21:44:48.631Z,2.7
2022-12-28T21:49:47.148Z,2.7
2022-12-28T21:54:46.303Z,2.7
2022-12-28T21:59:45.042Z,2.8
2022-12-28T22:04:43.734Z,2.8
2022-12-28T22:09:42.387Z,2.8
2022-12-28T22:14:41.066Z,2.9
2022-12-28T22:19:39.741Z,2.9
2022-12-28T22:24:38.277Z,2.9
2022-12-28T22:29:36.836Z,3
2022-12-28T22:34:35.362Z,3
2022-12-28T22:39:33.891Z,2.9
2022-12-28T22:44:32.374Z,2.9
2022-12-28T22:49:30.688Z,2.8
2022-12-28T22:54:29.275Z,2.7
2022-12-28T22:59:27.868Z,2.9
2022-12-28T23:04:34.980Z,2.9
2022-12-28T23:09:31.832Z,3
2022-12-28T23:14:30.445Z,3
2022-12-28T23:19:29.017Z,2.9
2022-12-28T23:24:27.669Z,2.8
2022-12-28T23:29:30.449Z,2.8
2022-12-28T23:34:19.257Z,3
2022-12-28T23:39:16.435Z,3
2022-12-28T23:44:15.013Z,3
2022-12-28T23:49:13.574Z,3
2022-12-28T23:54:12.460Z,3
2022-12-28T23:59:10.896Z,3
